Terminal Aerodrome Forecast
Issued by NWS Charleston, WV

Current Version | Previous Version | Graphics & Text | Print | Product List | Glossary On
Versions: 1 2 3 4 5 6 7 8 9 10 11 12 13 14 15 16 17 18 19 20 21
063
FTUS41 KRLX 092341
TAFBKW
TAF
KBKW 092341Z 1000/1024 28012G19KT 3SM -SHSN SCT008 OVC020
     FM100400 28013G19KT 3SM -SHSN OVC008
     FM101000 28012G17KT 2SM -SHSN OVC008
     FM101400 27010G16KT 3SM -SHSN OVC010
     FM101700 27013G19KT 4SM -SHSN BKN015
     FM101900 27013G19KT 6SM -SHSN BKN020=

USA.gov is the U.S. government's official web portal to all federal, state and local government web resources and services.